createdAt,value
2022-11-19T00:00:41.047Z,3.63
2022-11-19T00:03:10.810Z,3.77
2022-11-19T00:05:42.345Z,3.77
2022-11-19T00:08:19.547Z,3.77
2022-11-19T00:10:49.980Z,3.90
2022-11-19T00:13:17.275Z,4.30
2022-11-19T00:15:47.084Z,4.13
2022-11-19T00:18:16.835Z,3.87
2022-11-19T00:20:46.536Z,3.53
2022-11-19T00:23:18.907Z,4.00
2022-11-19T00:25:48.595Z,3.63
2022-11-19T00:28:18.307Z,3.87
2022-11-19T00:30:48.806Z,3.97
2022-11-19T00:33:18.664Z,3.73
2022-11-19T00:35:48.376Z,4.33
2022-11-19T00:38:20.736Z,4.63
2022-11-19T00:40:50.443Z,4.10
2022-11-19T00:43:32.604Z,4.80
2022-11-19T00:46:02.368Z,4.27
2022-11-19T00:48:32.057Z,4.20
2022-11-19T00:51:02.197Z,4.30
2022-11-19T00:53:34.464Z,4.10
2022-11-19T00:56:05.103Z,4.50
2022-11-19T00:58:34.798Z,4.73
2022-11-19T01:01:04.525Z,4.17
2022-11-19T01:03:34.967Z,4.47
2022-11-19T01:06:04.684Z,4.63
2022-11-19T01:08:37.275Z,5.07
2022-11-19T01:11:08.652Z,4.17
2022-11-19T01:13:39.078Z,4.47
2022-11-19T01:16:11.676Z,4.57
2022-11-19T01:18:42.455Z,4.33
2022-11-19T01:21:14.224Z,4.60
2022-11-19T01:23:47.545Z,4.70
2022-11-19T01:26:18.342Z,4.50
2022-11-19T01:28:48.694Z,4.17
2022-11-19T01:31:20.816Z,4.10
2022-11-19T01:33:51.311Z,4.53
2022-11-19T01:36:23.076Z,4.63
2022-11-19T01:38:56.286Z,4.40
2022-11-19T01:41:28.280Z,3.60
2022-11-19T01:44:00.865Z,4.50
2022-11-19T01:46:33.484Z,4.40
2022-11-19T01:49:08.304Z,4.57
2022-11-19T01:51:40.919Z,4.00
2022-11-19T01:54:18.748Z,4.50
2022-11-19T01:56:48.497Z,4.83
2022-11-19T01:59:21.539Z,4.67
2022-11-19T02:01:51.557Z,4.30
2022-11-19T02:04:22.124Z,4.40
2022-11-19T02:06:52.140Z,4.70
2022-11-19T02:09:25.060Z,4.87
2022-11-19T02:12:09.662Z,3.73
2022-11-19T02:15:07.486Z,4.70
2022-11-19T02:17:53.982Z,4.27
2022-11-19T02:20:44.332Z,4.53
2022-11-19T02:23:56.140Z,4.50
2022-11-19T02:26:58.288Z,4.97
2022-11-19T02:29:53.199Z,4.00
2022-11-19T02:32:30.968Z,4.63
2022-11-19T02:35:06.794Z,4.83
2022-11-19T02:37:44.844Z,4.77
2022-11-19T02:40:22.938Z,4.93
2022-11-19T02:42:59.762Z,5.03
2022-11-19T02:45:38.101Z,4.97
2022-11-19T02:48:13.183Z,5.03
2022-11-19T02:50:48.043Z,5.30
2022-11-19T02:53:17.770Z,5.23
2022-11-19T02:56:10.539Z,5.00
2022-11-19T02:58:56.317Z,5.13
2022-11-19T03:01:47.810Z,4.93
2022-11-19T03:04:34.416Z,5.20
2022-11-19T03:07:07.933Z,4.60
2022-11-19T03:09:44.232Z,4.80
2022-11-19T03:12:21.881Z,4.90
2022-11-19T03:15:10.513Z,4.50
2022-11-19T03:17:56.757Z,4.50
2022-11-19T03:20:33.037Z,4.90
2022-11-19T03:23:07.941Z,4.30
2022-11-19T03:25:42.520Z,4.53
2022-11-19T03:28:16.599Z,4.90
2022-11-19T03:30:49.193Z,4.53
2022-11-19T03:33:25.779Z,5.00
2022-11-19T03:35:58.862Z,4.50
2022-11-19T03:38:32.468Z,4.97
2022-11-19T03:41:04.288Z,4.83
2022-11-19T03:43:40.756Z,4.63
2022-11-19T03:46:17.182Z,4.90
2022-11-19T03:48:52.927Z,4.70
2022-11-19T03:51:25.187Z,5.03
2022-11-19T03:53:55.806Z,5.07
2022-11-19T03:56:29.552Z,5.17
2022-11-19T03:59:02.002Z,5.10
2022-11-19T04:01:33.691Z,4.80
2022-11-19T04:04:18.873Z,4.70
2022-11-19T04:06:48.607Z,5.17
2022-11-19T04:09:19.083Z,5.40
2022-11-19T04:14:17.498Z,5.20
2022-11-19T04:16:47.413Z,5.30
2022-11-19T04:19:20.724Z,5.27
2022-11-19T04:21:50.879Z,5.63
2022-11-19T04:24:20.741Z,5.20
2022-11-19T04:26:50.444Z,4.90
2022-11-19T04:29:20.473Z,5.73
2022-11-19T04:31:50.456Z,5.03
2022-11-19T04:34:22.907Z,5.20
2022-11-19T04:36:52.621Z,4.97
2022-11-19T04:39:22.618Z,5.40
2022-11-19T04:41:52.501Z,5.00
2022-11-19T04:44:22.257Z,5.57
2022-11-19T04:46:51.993Z,5.23
2022-11-19T04:49:24.421Z,5.00
2022-11-19T04:51:54.205Z,5.30
2022-11-19T04:54:23.952Z,5.70
2022-11-19T04:56:53.691Z,5.57
2022-11-19T04:59:23.394Z,5.77
2022-11-19T05:01:53.144Z,5.67
2022-11-19T05:04:25.673Z,5.63
2022-11-19T05:06:55.453Z,5.63
2022-11-19T05:09:25.199Z,5.10
2022-11-19T05:11:54.936Z,5.33
2022-11-19T05:14:28.911Z,6.03
2022-11-19T05:17:00.167Z,5.53
2022-11-19T05:19:32.566Z,5.33
2022-11-19T05:22:02.271Z,5.50
2022-11-19T05:24:31.985Z,6.37
2022-11-19T05:27:01.697Z,6.03
2022-11-19T05:29:31.405Z,5.70
2022-11-19T05:32:01.220Z,5.63
2022-11-19T05:34:33.647Z,6.47
2022-11-19T05:37:03.381Z,5.60
2022-11-19T05:39:33.070Z,5.27
2022-11-19T05:42:02.780Z,5.57
2022-11-19T05:44:32.515Z,5.23
2022-11-19T05:47:02.203Z,5.30
2022-11-19T05:49:34.561Z,5.63
2022-11-19T05:52:04.308Z,5.07
2022-11-19T05:54:34.092Z,5.20
2022-11-19T05:57:03.956Z,5.67
2022-11-19T05:59:33.668Z,5.67
2022-11-19T06:02:03.400Z,5.93
2022-11-19T06:04:35.796Z,5.63
2022-11-19T06:07:05.550Z,5.30
2022-11-19T06:09:35.475Z,5.37
2022-11-19T06:12:05.243Z,5.20
2022-11-19T06:14:34.966Z,5.20
2022-11-19T06:17:04.711Z,5.93
2022-11-19T06:19:37.205Z,6.00
2022-11-19T06:22:06.944Z,5.97
2022-11-19T06:24:36.654Z,5.43
2022-11-19T06:27:06.763Z,5.23
2022-11-19T06:29:36.517Z,5.20
2022-11-19T06:32:06.546Z,5.20
2022-11-19T06:34:38.933Z,5.60
2022-11-19T06:37:08.680Z,5.20
2022-11-19T06:39:38.365Z,6.17
2022-11-19T06:42:20.604Z,5.60
2022-11-19T06:44:50.300Z,5.43
2022-11-19T06:47:20.082Z,5.33
2022-11-19T06:49:52.448Z,5.43
2022-11-19T06:52:22.158Z,5.33
2022-11-19T06:54:51.876Z,5.40
2022-11-19T06:57:21.623Z,5.10
2022-11-19T06:59:51.324Z,5.83
2022-11-19T07:02:21.678Z,5.57
2022-11-19T07:04:54.176Z,5.87
2022-11-19T07:07:24.083Z,5.27
2022-11-19T07:09:53.899Z,5.53
2022-11-19T07:12:23.631Z,5.73
2022-11-19T07:14:53.379Z,5.10
2022-11-19T07:17:23.116Z,5.30
2022-11-19T07:19:55.420Z,5.10
2022-11-19T07:22:25.325Z,5.87
2022-11-19T07:24:55.037Z,5.43
2022-11-19T07:27:24.758Z,5.57
2022-11-19T07:29:54.545Z,5.47
2022-11-19T07:32:24.435Z,5.80
2022-11-19T07:34:56.781Z,5.37
2022-11-19T07:37:26.790Z,5.80
2022-11-19T07:39:56.533Z,5.67
2022-11-19T07:42:38.674Z,6.23
2022-11-19T07:45:09.823Z,5.67
2022-11-19T07:47:39.567Z,5.13
2022-11-19T07:50:12.666Z,5.33
2022-11-19T07:52:42.451Z,5.57
2022-11-19T07:55:12.813Z,5.70
2022-11-19T07:57:42.592Z,5.40
2022-11-19T08:00:13.660Z,5.80
2022-11-19T08:02:43.376Z,5.20
2022-11-19T08:05:15.703Z,6.03
2022-11-19T08:07:45.451Z,5.20
2022-11-19T08:10:15.179Z,5.90
2022-11-19T08:13:03.251Z,5.40
2022-11-19T08:15:33.416Z,5.60
2022-11-19T08:18:12.685Z,6.37
2022-11-19T08:20:48.422Z,5.33
2022-11-19T08:23:18.427Z,5.73
2022-11-19T08:25:48.342Z,5.50
2022-11-19T08:28:18.068Z,5.20
2022-11-19T08:30:47.784Z,5.33
2022-11-19T08:33:17.488Z,5.43
2022-11-19T08:35:50.406Z,4.97
2022-11-19T08:38:20.129Z,5.10
2022-11-19T08:41:14.404Z,5.10
2022-11-19T08:43:41.737Z,5.00
2022-11-19T08:46:11.949Z,5.40
2022-11-19T08:48:41.634Z,5.20
2022-11-19T08:51:14.961Z,4.90
2022-11-19T08:53:44.912Z,5.00
2022-11-19T08:56:17.997Z,5.20
2022-11-19T08:58:48.321Z,4.77
2022-11-19T09:01:19.859Z,5.10
2022-11-19T09:03:50.009Z,5.00
2022-11-19T09:06:22.300Z,4.80
2022-11-19T09:08:52.032Z,4.63
2022-11-19T09:11:23.434Z,4.93
2022-11-19T09:13:53.108Z,4.20
2022-11-19T09:16:22.836Z,4.77
2022-11-19T09:18:52.707Z,5.10
2022-11-19T09:21:25.042Z,5.40
2022-11-19T09:23:54.742Z,4.70
2022-11-19T09:26:24.455Z,4.77
2022-11-19T09:28:55.363Z,5.00
2022-11-19T09:31:25.104Z,4.77
2022-11-19T09:33:55.660Z,4.37
2022-11-19T09:36:28.585Z,4.67
2022-11-19T09:39:02.308Z,4.67
2022-11-19T09:41:48.783Z,4.17
2022-11-19T09:44:31.995Z,4.57
2022-11-19T09:47:09.792Z,4.80
2022-11-19T09:49:45.341Z,4.50
2022-11-19T09:52:22.048Z,4.47
2022-11-19T09:54:55.158Z,4.20
2022-11-19T09:57:31.032Z,4.57
2022-11-19T10:00:04.517Z,4.27
2022-11-19T10:02:34.337Z,4.57
2022-11-19T10:05:04.268Z,4.13
2022-11-19T10:07:47.553Z,4.47
2022-11-19T10:10:34.124Z,4.60
2022-11-19T10:13:17.169Z,4.30
2022-11-19T10:15:59.640Z,4.20
2022-11-19T10:18:40.194Z,4.80
2022-11-19T10:21:17.326Z,4.50
2022-11-19T10:23:56.191Z,4.37
2022-11-19T10:26:34.975Z,4.63
2022-11-19T10:29:06.548Z,4.77
2022-11-19T10:31:39.879Z,4.43
2022-11-19T10:34:17.308Z,4.50
2022-11-19T10:36:50.942Z,4.83
2022-11-19T10:39:27.980Z,4.73
2022-11-19T10:42:04.306Z,4.03
2022-11-19T10:44:43.295Z,4.57
2022-11-19T10:47:19.584Z,4.50
2022-11-19T10:49:56.115Z,4.60
2022-11-19T10:52:30.104Z,4.73
2022-11-19T10:55:07.771Z,3.87
2022-11-19T10:57:37.778Z,4.50
2022-11-19T11:00:08.471Z,4.20
2022-11-19T11:02:47.608Z,4.40
2022-11-19T11:05:19.280Z,4.17
2022-11-19T11:07:52.661Z,4.70
2022-11-19T11:10:38.483Z,4.23
2022-11-19T11:13:23.984Z,4.30
2022-11-19T11:15:56.764Z,4.40
2022-11-19T11:18:28.889Z,4.30
2022-11-19T11:20:59.546Z,4.00
2022-11-19T11:23:31.110Z,4.27
2022-11-19T11:26:09.875Z,4.73
2022-11-19T11:28:39.964Z,4.33
2022-11-19T11:31:13.672Z,4.80
2022-11-19T11:33:45.212Z,4.17
2022-11-19T11:36:18.433Z,4.50
2022-11-19T11:38:50.426Z,4.30
2022-11-19T11:44:21.820Z,4.50
2022-11-19T11:46:53.528Z,4.20
2022-11-19T11:49:30.383Z,4.73
2022-11-19T11:52:19.475Z,4.47
2022-11-19T11:55:00.824Z,4.33
2022-11-19T11:57:35.932Z,4.10
2022-11-19T12:00:28.005Z,4.40
2022-11-19T12:03:03.014Z,4.63
2022-11-19T12:05:40.497Z,4.20
2022-11-19T12:08:16.594Z,4.03
2022-11-19T12:10:54.819Z,4.37
2022-11-19T12:13:54.919Z,6.10
2022-11-19T12:16:45.672Z,7.37
2022-11-19T12:19:35.932Z,8.27
2022-11-19T12:22:15.632Z,4.30
2022-11-19T12:25:04.763Z,4.20
2022-11-19T12:27:40.842Z,4.90
2022-11-19T12:30:18.533Z,4.07
2022-11-19T12:33:15.275Z,3.77
2022-11-19T12:35:57.056Z,4.13
2022-11-19T12:38:37.107Z,4.10
2022-11-19T12:41:20.608Z,4.50
2022-11-19T12:43:56.523Z,4.47
2022-11-19T12:46:43.326Z,4.93
2022-11-19T12:49:41.896Z,4.47
2022-11-19T12:52:32.481Z,3.93
2022-11-19T12:55:12.767Z,4.53
2022-11-19T12:57:50.787Z,4.83
2022-11-19T13:00:22.799Z,4.50
2022-11-19T13:03:07.407Z,4.43
2022-11-19T13:05:45.515Z,4.40
2022-11-19T13:08:21.290Z,4.27
2022-11-19T13:10:53.844Z,4.27
2022-11-19T13:13:29.125Z,4.30
2022-11-19T13:16:03.256Z,4.10
2022-11-19T13:18:39.054Z,4.63
2022-11-19T13:21:11.416Z,4.17
2022-11-19T13:23:45.325Z,3.83
2022-11-19T13:26:19.356Z,4.40
2022-11-19T13:28:53.446Z,3.97
2022-11-19T13:31:33.818Z,4.47
2022-11-19T13:34:18.535Z,4.47
2022-11-19T13:36:57.880Z,4.20
2022-11-19T13:39:34.388Z,4.60
2022-11-19T13:42:18.792Z,4.47
2022-11-19T13:44:48.953Z,4.33
2022-11-19T13:47:25.286Z,4.43
2022-11-19T13:50:02.628Z,4.30
2022-11-19T13:52:35.863Z,4.60
2022-11-19T13:55:07.305Z,4.17
2022-11-19T13:57:43.492Z,4.30
2022-11-19T14:00:26.348Z,3.70
2022-11-19T14:03:20.246Z,4.47
2022-11-19T14:06:22.774Z,3.80
2022-11-19T14:09:04.519Z,4.30
2022-11-19T14:11:53.522Z,3.80
2022-11-19T14:14:49.484Z,4.20
2022-11-19T14:17:41.004Z,3.83
2022-11-19T14:20:51.288Z,3.70
2022-11-19T14:24:01.159Z,4.33
2022-11-19T14:27:00.968Z,3.73
2022-11-19T14:29:56.842Z,4.37
2022-11-19T14:32:46.361Z,4.37
2022-11-19T14:35:34.819Z,3.90
2022-11-19T14:38:17.336Z,4.63
2022-11-19T14:40:50.248Z,4.20
2022-11-19T14:43:39.644Z,4.00
2022-11-19T14:46:27.303Z,4.40
2022-11-19T14:49:04.485Z,4.27
2022-11-19T14:51:40.369Z,4.47
2022-11-19T14:54:31.338Z,4.10
2022-11-19T14:57:11.937Z,4.10
2022-11-19T14:59:42.588Z,3.90
2022-11-19T15:02:25.947Z,4.10
2022-11-19T15:05:00.980Z,4.50
2022-11-19T15:08:14.848Z,4.17
2022-11-19T15:11:06.644Z,3.83
2022-11-19T15:13:40.731Z,4.03
2022-11-19T15:16:14.445Z,3.70
2022-11-19T15:19:10.992Z,4.00
2022-11-19T15:22:10.859Z,3.83
2022-11-19T15:24:56.996Z,4.30
2022-11-19T15:27:41.958Z,4.27
2022-11-19T15:30:20.844Z,4.00
2022-11-19T15:33:07.813Z,3.70
2022-11-19T15:36:06.186Z,3.70
2022-11-19T15:38:39.976Z,4.10
2022-11-19T15:41:10.494Z,4.33
2022-11-19T15:43:46.358Z,3.70
2022-11-19T15:46:29.917Z,4.23
2022-11-19T15:49:05.063Z,4.00
2022-11-19T15:51:41.874Z,3.93
2022-11-19T15:54:14.862Z,4.20
2022-11-19T15:56:50.918Z,3.93
2022-11-19T15:59:23.037Z,4.07
2022-11-19T16:02:03.911Z,4.60
2022-11-19T16:04:37.725Z,4.50
2022-11-19T16:07:10.120Z,5.00
2022-11-19T16:09:40.888Z,5.30
2022-11-19T16:12:35.375Z,5.37
2022-11-19T16:15:17.511Z,5.07
2022-11-19T16:17:50.546Z,5.30
2022-11-19T16:20:23.458Z,5.07
2022-11-19T16:22:59.954Z,5.47
2022-11-19T16:25:35.905Z,4.80
2022-11-19T16:28:09.348Z,5.40
2022-11-19T16:30:47.191Z,5.50
2022-11-19T16:33:23.224Z,5.30
2022-11-19T16:35:54.167Z,5.47
2022-11-19T16:38:30.339Z,6.10
2022-11-19T16:41:12.867Z,6.30
2022-11-19T16:43:48.684Z,5.63
2022-11-19T16:46:21.381Z,6.00
2022-11-19T16:49:02.662Z,6.40
2022-11-19T16:51:38.886Z,6.40
2022-11-19T16:54:11.023Z,6.20
2022-11-19T16:56:48.229Z,6.50
2022-11-19T16:59:23.997Z,6.87
2022-11-19T17:02:00.244Z,5.90
2022-11-19T17:04:34.519Z,7.40
2022-11-19T17:07:04.534Z,7.33
2022-11-19T17:09:41.873Z,7.37
2022-11-19T17:12:27.585Z,7.77
2022-11-19T17:15:00.150Z,7.77
2022-11-19T17:17:42.779Z,7.63
2022-11-19T17:20:42.457Z,8.37
2022-11-19T17:23:19.991Z,8.47
2022-11-19T17:25:51.396Z,9.97
2022-11-19T17:28:28.410Z,9.43
2022-11-19T17:30:58.859Z,9.70
2022-11-19T17:33:32.685Z,11.83
2022-11-19T17:36:05.168Z,11.57
2022-11-19T17:38:37.975Z,7.20
2022-11-19T17:41:08.237Z,10.73
2022-11-19T17:43:52.403Z,12.50
2022-11-19T17:46:22.960Z,11.70
2022-11-19T17:48:53.875Z,10.93
2022-11-19T17:51:25.060Z,11.43
2022-11-19T17:53:58.035Z,11.20
2022-11-19T17:56:30.628Z,11.50
2022-11-19T17:59:01.208Z,11.20
2022-11-19T18:01:31.129Z,10.60
2022-11-19T18:04:00.944Z,9.33
2022-11-19T18:06:30.728Z,9.13
2022-11-19T18:09:03.094Z,8.47
2022-11-19T18:11:33.708Z,7.90
2022-11-19T18:14:09.938Z,8.03
2022-11-19T18:16:42.788Z,12.33
2022-11-19T18:19:16.832Z,10.53
2022-11-19T18:21:48.566Z,11.30
2022-11-19T18:24:21.285Z,12.50
2022-11-19T18:26:51.016Z,11.13
2022-11-19T18:29:21.044Z,11.23
2022-11-19T18:31:53.506Z,10.53
2022-11-19T18:34:25.528Z,9.03
2022-11-19T18:36:55.256Z,8.53
2022-11-19T18:39:28.055Z,7.30
2022-11-19T18:41:58.532Z,6.87
2022-11-19T18:44:35.088Z,7.60
2022-11-19T18:47:06.778Z,7.20
2022-11-19T18:49:36.559Z,7.00
2022-11-19T18:52:08.938Z,7.40
2022-11-19T18:54:41.276Z,8.20
2022-11-19T18:57:12.101Z,8.87
2022-11-19T18:59:41.975Z,8.53
2022-11-19T19:02:12.916Z,8.87
2022-11-19T19:04:42.974Z,10.40
2022-11-19T19:07:13.357Z,10.37
2022-11-19T19:09:46.047Z,9.70
2022-11-19T19:12:22.382Z,9.90
2022-11-19T19:14:54.752Z,8.70
2022-11-19T19:17:24.608Z,9.73
2022-11-19T19:19:54.319Z,9.17
2022-11-19T19:22:24.249Z,7.77
2022-11-19T19:24:58.299Z,8.77
2022-11-19T19:27:28.506Z,8.73
2022-11-19T19:29:58.416Z,8.87
2022-11-19T19:32:28.135Z,8.80
2022-11-19T19:34:58.058Z,9.17
2022-11-19T19:37:27.811Z,9.13
2022-11-19T19:40:00.300Z,8.53
2022-11-19T19:42:31.695Z,9.33
2022-11-19T19:45:01.465Z,8.57
2022-11-19T19:47:31.145Z,8.97
2022-11-19T19:50:00.890Z,8.70
2022-11-19T19:52:30.575Z,8.50
2022-11-19T19:55:04.201Z,9.20
2022-11-19T19:57:33.959Z,8.80
2022-11-19T20:00:03.701Z,8.63
2022-11-19T20:02:33.533Z,9.53
2022-11-19T20:05:03.267Z,8.90
2022-11-19T20:07:33.255Z,8.50
2022-11-19T20:10:05.641Z,9.30
2022-11-19T20:12:47.579Z,10.10
2022-11-19T20:15:17.420Z,9.63
2022-11-19T20:17:47.209Z,9.70
2022-11-19T20:20:17.432Z,9.87
2022-11-19T20:22:47.671Z,10.53
2022-11-19T20:25:21.186Z,11.57
2022-11-19T20:27:50.980Z,10.27
2022-11-19T20:30:20.936Z,10.90
2022-11-19T20:32:50.691Z,10.47
2022-11-19T20:35:20.426Z,11.27
2022-11-19T20:37:50.148Z,11.10
2022-11-19T20:40:22.660Z,10.43
2022-11-19T20:43:04.907Z,10.27
2022-11-19T20:45:34.682Z,9.77
2022-11-19T20:48:04.844Z,10.33
2022-11-19T20:50:34.568Z,11.60
2022-11-19T20:53:04.291Z,10.53
2022-11-19T20:55:48.548Z,9.97
2022-11-19T20:58:26.815Z,9.43
2022-11-19T21:01:02.277Z,10.33
2022-11-19T21:03:32.207Z,9.90
2022-11-19T21:06:03.533Z,9.83
2022-11-19T21:08:35.095Z,10.03
2022-11-19T21:11:12.676Z,9.03
2022-11-19T21:13:42.834Z,9.70
2022-11-19T21:16:15.819Z,8.93
2022-11-19T21:18:46.045Z,9.17
2022-11-19T21:21:17.476Z,9.53
2022-11-19T21:23:47.409Z,9.63
2022-11-19T21:26:21.693Z,8.97
2022-11-19T21:28:53.651Z,9.23
2022-11-19T21:31:37.926Z,8.87
2022-11-19T21:34:08.454Z,8.67
2022-11-19T21:36:38.415Z,8.43
2022-11-19T21:39:09.931Z,8.37
2022-11-19T21:41:42.491Z,8.00
2022-11-19T21:44:18.075Z,8.53
2022-11-19T21:46:50.920Z,9.43
2022-11-19T21:49:21.179Z,9.33
2022-11-19T21:51:51.313Z,9.47
2022-11-19T21:54:21.136Z,10.03
2022-11-19T21:56:53.553Z,10.00
2022-11-19T21:59:24.394Z,10.33
2022-11-19T22:01:55.034Z,10.20
2022-11-19T22:04:24.979Z,10.93
2022-11-19T22:06:54.698Z,11.83
2022-11-19T22:09:24.420Z,9.87
2022-11-19T22:11:57.070Z,9.80
2022-11-19T22:14:27.062Z,10.70
2022-11-19T22:16:57.102Z,8.60
2022-11-19T22:19:26.882Z,8.10
2022-11-19T22:21:56.543Z,6.50
2022-11-19T22:24:26.184Z,6.93
2022-11-19T22:26:58.774Z,6.73
2022-11-19T22:29:28.662Z,6.27
2022-11-19T22:31:58.342Z,7.37
2022-11-19T22:34:29.320Z,6.63
2022-11-19T22:36:59.055Z,6.57
2022-11-19T22:39:29.009Z,6.93
2022-11-19T22:42:02.025Z,7.13
2022-11-19T22:44:31.705Z,6.93
2022-11-19T22:47:02.626Z,6.73
2022-11-19T22:49:33.180Z,6.70
2022-11-19T22:52:02.908Z,6.53
2022-11-19T22:54:38.653Z,7.00
2022-11-19T22:57:14.089Z,6.87
2022-11-19T22:59:43.814Z,6.10
2022-11-19T23:02:13.526Z,7.00
2022-11-19T23:04:43.266Z,6.30
2022-11-19T23:07:13.005Z,6.13
2022-11-19T23:09:42.751Z,7.17
2022-11-19T23:12:27.523Z,7.40
2022-11-19T23:14:57.378Z,7.40
2022-11-19T23:17:27.175Z,6.43
2022-11-19T23:20:01.613Z,7.20
2022-11-19T23:22:34.098Z,6.90
2022-11-19T23:25:04.035Z,6.77
2022-11-19T23:27:36.586Z,6.70
2022-11-19T23:30:07.142Z,6.30
2022-11-19T23:32:36.888Z,6.93
2022-11-19T23:35:07.200Z,7.23
2022-11-19T23:37:36.854Z,6.10
2022-11-19T23:40:07.143Z,6.17
2022-11-19T23:42:39.436Z,6.70
2022-11-19T23:45:10.088Z,7.10
2022-11-19T23:47:40.212Z,6.37
2022-11-19T23:50:11.220Z,6.23
2022-11-19T23:52:40.927Z,7.43
2022-11-19T23:55:11.110Z,6.67
2022-11-19T23:57:43.432Z,7.00
